sensor_id;sensor_type;location;lat;lon;timestamp;P1;durP1;ratioP1;P2;durP2;ratioP2
13327;SDS011;6733;51.044;3.746;2022-08-01T00:00:46;8.70;;;6.97;;
13327;SDS011;6733;51.044;3.746;2022-08-01T00:03:12;9.40;;;6.87;;
13327;SDS011;6733;51.044;3.746;2022-08-01T00:05:38;9.13;;;6.57;;
13327;SDS011;6733;51.044;3.746;2022-08-01T00:08:04;9.30;;;6.80;;
13327;SDS011;6733;51.044;3.746;2022-08-01T00:10:30;9.40;;;6.40;;
13327;SDS011;6733;51.044;3.746;2022-08-01T00:12:57;13.40;;;7.53;;
13327;SDS011;6733;51.044;3.746;2022-08-01T00:15:23;12.23;;;7.70;;
13327;SDS011;6733;51.044;3.746;2022-08-01T00:17:49;16.23;;;8.80;;
13327;SDS011;6733;51.044;3.746;2022-08-01T00:20:15;15.37;;;9.23;;
13327;SDS011;6733;51.044;3.746;2022-08-01T00:22:41;14.93;;;10.37;;
13327;SDS011;6733;51.044;3.746;2022-08-01T00:25:07;18.17;;;10.50;;
13327;SDS011;6733;51.044;3.746;2022-08-01T00:27:34;16.27;;;10.53;;
13327;SDS011;6733;51.044;3.746;2022-08-01T00:30:00;14.10;;;10.53;;
13327;SDS011;6733;51.044;3.746;2022-08-01T00:32:26;19.00;;;11.10;;
13327;SDS011;6733;51.044;3.746;2022-08-01T00:34:55;16.63;;;11.50;;
13327;SDS011;6733;51.044;3.746;2022-08-01T00:37:21;19.20;;;11.57;;
13327;SDS011;6733;51.044;3.746;2022-08-01T00:39:47;16.17;;;10.97;;
13327;SDS011;6733;51.044;3.746;2022-08-01T00:42:13;17.20;;;11.07;;
13327;SDS011;6733;51.044;3.746;2022-08-01T00:44:39;22.60;;;11.87;;
13327;SDS011;6733;51.044;3.746;2022-08-01T00:47:05;15.80;;;11.00;;
13327;SDS011;6733;51.044;3.746;2022-08-01T00:49:32;16.77;;;11.20;;
13327;SDS011;6733;51.044;3.746;2022-08-01T00:51:59;18.47;;;12.33;;
13327;SDS011;6733;51.044;3.746;2022-08-01T00:54:26;18.33;;;12.57;;
13327;SDS011;6733;51.044;3.746;2022-08-01T00:56:53;18.23;;;12.23;;
13327;SDS011;6733;51.044;3.746;2022-08-01T00:59:20;17.70;;;12.87;;
13327;SDS011;6733;51.044;3.746;2022-08-01T01:01:47;22.20;;;14.10;;
13327;SDS011;6733;51.044;3.746;2022-08-01T01:04:15;21.20;;;15.23;;
13327;SDS011;6733;51.044;3.746;2022-08-01T01:06:48;21.47;;;15.07;;
13327;SDS011;6733;51.044;3.746;2022-08-01T01:14:31;28.03;;;16.73;;
13327;SDS011;6733;51.044;3.746;2022-08-01T01:17:06;23.67;;;17.27;;
13327;SDS011;6733;51.044;3.746;2022-08-01T01:19:33;28.30;;;16.73;;
13327;SDS011;6733;51.044;3.746;2022-08-01T01:24:54;27.20;;;17.93;;
13327;SDS011;6733;51.044;3.746;2022-08-01T01:30:25;25.67;;;17.70;;
13327;SDS011;6733;51.044;3.746;2022-08-01T01:32:55;27.80;;;18.43;;
13327;SDS011;6733;51.044;3.746;2022-08-01T01:35:30;29.57;;;19.07;;
13327;SDS011;6733;51.044;3.746;2022-08-01T01:38:09;30.50;;;19.03;;
13327;SDS011;6733;51.044;3.746;2022-08-01T01:40:39;32.20;;;19.17;;
13327;SDS011;6733;51.044;3.746;2022-08-01T01:43:08;30.47;;;19.47;;
13327;SDS011;6733;51.044;3.746;2022-08-01T01:45:36;31.77;;;20.60;;
13327;SDS011;6733;51.044;3.746;2022-08-01T01:48:04;29.03;;;20.00;;
13327;SDS011;6733;51.044;3.746;2022-08-01T01:50:33;24.07;;;18.37;;
13327;SDS011;6733;51.044;3.746;2022-08-01T01:53:01;21.13;;;16.90;;
13327;SDS011;6733;51.044;3.746;2022-08-01T01:55:29;19.90;;;13.47;;
13327;SDS011;6733;51.044;3.746;2022-08-01T01:57:56;16.40;;;12.10;;
13327;SDS011;6733;51.044;3.746;2022-08-01T02:00:23;18.37;;;9.40;;
13327;SDS011;6733;51.044;3.746;2022-08-01T02:02:51;15.90;;;8.73;;
13327;SDS011;6733;51.044;3.746;2022-08-01T02:05:19;13.73;;;9.30;;
13327;SDS011;6733;51.044;3.746;2022-08-01T02:07:46;16.90;;;9.87;;
13327;SDS011;6733;51.044;3.746;2022-08-01T02:10:14;18.93;;;11.03;;
13327;SDS011;6733;51.044;3.746;2022-08-01T02:12:43;14.67;;;10.00;;
13327;SDS011;6733;51.044;3.746;2022-08-01T02:15:11;14.63;;;10.53;;
13327;SDS011;6733;51.044;3.746;2022-08-01T02:17:44;16.13;;;10.27;;
13327;SDS011;6733;51.044;3.746;2022-08-01T02:20:14;14.33;;;10.23;;
13327;SDS011;6733;51.044;3.746;2022-08-01T02:22:49;15.90;;;10.30;;
13327;SDS011;6733;51.044;3.746;2022-08-01T02:25:34;15.27;;;9.00;;
13327;SDS011;6733;51.044;3.746;2022-08-01T02:28:06;13.53;;;8.87;;
13327;SDS011;6733;51.044;3.746;2022-08-01T02:30:36;13.43;;;8.90;;
13327;SDS011;6733;51.044;3.746;2022-08-01T02:33:05;11.23;;;7.80;;
13327;SDS011;6733;51.044;3.746;2022-08-01T02:35:59;10.80;;;6.20;;
13327;SDS011;6733;51.044;3.746;2022-08-01T02:38:28;10.73;;;6.20;;
13327;SDS011;6733;51.044;3.746;2022-08-01T02:41:00;6.03;;;5.47;;
13327;SDS011;6733;51.044;3.746;2022-08-01T02:43:35;6.37;;;5.17;;
13327;SDS011;6733;51.044;3.746;2022-08-01T02:46:03;7.00;;;5.00;;
13327;SDS011;6733;51.044;3.746;2022-08-01T02:48:32;9.27;;;6.33;;
13327;SDS011;6733;51.044;3.746;2022-08-01T02:51:02;10.83;;;5.50;;
13327;SDS011;6733;51.044;3.746;2022-08-01T02:53:31;9.10;;;5.60;;
13327;SDS011;6733;51.044;3.746;2022-08-01T02:56:03;5.90;;;4.93;;
13327;SDS011;6733;51.044;3.746;2022-08-01T02:58:31;6.87;;;5.10;;
13327;SDS011;6733;51.044;3.746;2022-08-01T03:01:01;8.97;;;5.00;;
13327;SDS011;6733;51.044;3.746;2022-08-01T03:03:28;8.60;;;4.60;;
13327;SDS011;6733;51.044;3.746;2022-08-01T03:05:56;8.13;;;5.17;;
13327;SDS011;6733;51.044;3.746;2022-08-01T03:08:23;6.03;;;4.90;;
13327;SDS011;6733;51.044;3.746;2022-08-01T03:10:50;10.00;;;5.37;;
13327;SDS011;6733;51.044;3.746;2022-08-01T03:13:19;7.47;;;4.20;;
13327;SDS011;6733;51.044;3.746;2022-08-01T03:15:47;7.67;;;4.60;;
13327;SDS011;6733;51.044;3.746;2022-08-01T03:18:14;6.87;;;4.10;;
13327;SDS011;6733;51.044;3.746;2022-08-01T03:20:41;4.27;;;3.67;;
13327;SDS011;6733;51.044;3.746;2022-08-01T03:23:09;5.37;;;4.07;;
13327;SDS011;6733;51.044;3.746;2022-08-01T03:25:38;5.23;;;4.03;;
13327;SDS011;6733;51.044;3.746;2022-08-01T03:28:07;4.77;;;3.60;;
13327;SDS011;6733;51.044;3.746;2022-08-01T03:30:34;7.80;;;3.70;;
13327;SDS011;6733;51.044;3.746;2022-08-01T03:33:02;6.90;;;3.23;;
13327;SDS011;6733;51.044;3.746;2022-08-01T03:35:30;3.97;;;3.50;;
13327;SDS011;6733;51.044;3.746;2022-08-01T03:37:59;4.80;;;3.60;;
13327;SDS011;6733;51.044;3.746;2022-08-01T03:40:29;4.90;;;3.90;;
13327;SDS011;6733;51.044;3.746;2022-08-01T03:43:05;4.63;;;3.50;;
13327;SDS011;6733;51.044;3.746;2022-08-01T03:45:51;4.83;;;3.87;;
13327;SDS011;6733;51.044;3.746;2022-08-01T03:48:19;6.40;;;3.77;;
13327;SDS011;6733;51.044;3.746;2022-08-01T03:50:52;5.70;;;4.27;;
13327;SDS011;6733;51.044;3.746;2022-08-01T03:53:20;5.23;;;3.73;;
13327;SDS011;6733;51.044;3.746;2022-08-01T03:55:50;4.80;;;3.80;;
13327;SDS011;6733;51.044;3.746;2022-08-01T03:58:18;5.53;;;4.00;;
13327;SDS011;6733;51.044;3.746;2022-08-01T04:00:45;6.43;;;4.20;;
13327;SDS011;6733;51.044;3.746;2022-08-01T04:03:11;3.90;;;3.60;;
13327;SDS011;6733;51.044;3.746;2022-08-01T04:05:41;6.23;;;4.50;;
13327;SDS011;6733;51.044;3.746;2022-08-01T04:08:08;6.27;;;4.50;;
13327;SDS011;6733;51.044;3.746;2022-08-01T04:10:34;7.13;;;4.47;;
13327;SDS011;6733;51.044;3.746;2022-08-01T04:13:00;5.30;;;4.37;;
13327;SDS011;6733;51.044;3.746;2022-08-01T04:15:27;5.87;;;3.97;;
13327;SDS011;6733;51.044;3.746;2022-08-01T04:17:53;5.43;;;4.47;;
13327;SDS011;6733;51.044;3.746;2022-08-01T04:20:20;5.80;;;3.90;;
13327;SDS011;6733;51.044;3.746;2022-08-01T04:22:46;4.27;;;3.87;;
13327;SDS011;6733;51.044;3.746;2022-08-01T04:25:17;4.00;;;3.60;;
13327;SDS011;6733;51.044;3.746;2022-08-01T04:27:58;7.27;;;4.87;;
13327;SDS011;6733;51.044;3.746;2022-08-01T04:30:30;6.90;;;4.53;;
13327;SDS011;6733;51.044;3.746;2022-08-01T04:33:00;5.67;;;4.57;;
13327;SDS011;6733;51.044;3.746;2022-08-01T04:35:27;5.60;;;4.90;;
13327;SDS011;6733;51.044;3.746;2022-08-01T04:37:55;6.40;;;5.03;;
13327;SDS011;6733;51.044;3.746;2022-08-01T04:40:22;6.03;;;4.67;;
13327;SDS011;6733;51.044;3.746;2022-08-01T04:42:51;6.90;;;5.20;;
13327;SDS011;6733;51.044;3.746;2022-08-01T04:45:17;8.27;;;5.50;;
13327;SDS011;6733;51.044;3.746;2022-08-01T04:47:44;6.83;;;4.90;;
13327;SDS011;6733;51.044;3.746;2022-08-01T04:50:13;6.90;;;5.40;;
13327;SDS011;6733;51.044;3.746;2022-08-01T04:52:39;5.83;;;4.90;;
13327;SDS011;6733;51.044;3.746;2022-08-01T04:55:07;5.33;;;4.80;;
13327;SDS011;6733;51.044;3.746;2022-08-01T04:57:34;5.27;;;4.73;;
13327;SDS011;6733;51.044;3.746;2022-08-01T05:00:03;7.07;;;4.67;;
13327;SDS011;6733;51.044;3.746;2022-08-01T05:02:29;7.80;;;5.10;;
13327;SDS011;6733;51.044;3.746;2022-08-01T05:04:56;7.97;;;3.97;;
13327;SDS011;6733;51.044;3.746;2022-08-01T05:07:22;6.30;;;3.40;;
13327;SDS011;6733;51.044;3.746;2022-08-01T05:09:48;3.77;;;3.40;;
13327;SDS011;6733;51.044;3.746;2022-08-01T05:12:14;5.40;;;3.23;;
13327;SDS011;6733;51.044;3.746;2022-08-01T05:14:41;4.77;;;3.20;;
13327;SDS011;6733;51.044;3.746;2022-08-01T05:17:07;4.40;;;3.40;;
13327;SDS011;6733;51.044;3.746;2022-08-01T05:19:34;5.80;;;3.53;;
13327;SDS011;6733;51.044;3.746;2022-08-01T05:22:02;5.53;;;2.90;;
13327;SDS011;6733;51.044;3.746;2022-08-01T05:24:30;4.33;;;3.17;;
13327;SDS011;6733;51.044;3.746;2022-08-01T05:26:57;6.47;;;4.10;;
13327;SDS011;6733;51.044;3.746;2022-08-01T05:29:24;6.00;;;3.73;;
13327;SDS011;6733;51.044;3.746;2022-08-01T05:31:51;5.50;;;3.53;;
13327;SDS011;6733;51.044;3.746;2022-08-01T05:34:18;5.23;;;4.30;;
13327;SDS011;6733;51.044;3.746;2022-08-01T05:36:44;4.33;;;3.53;;
13327;SDS011;6733;51.044;3.746;2022-08-01T05:39:11;4.80;;;3.30;;
13327;SDS011;6733;51.044;3.746;2022-08-01T05:41:38;5.97;;;4.27;;
13327;SDS011;6733;51.044;3.746;2022-08-01T05:44:04;4.30;;;3.70;;
13327;SDS011;6733;51.044;3.746;2022-08-01T05:46:31;4.40;;;4.00;;
13327;SDS011;6733;51.044;3.746;2022-08-01T05:48:59;5.20;;;4.10;;
13327;SDS011;6733;51.044;3.746;2022-08-01T05:51:26;8.17;;;4.80;;
13327;SDS011;6733;51.044;3.746;2022-08-01T05:53:53;8.20;;;4.97;;
13327;SDS011;6733;51.044;3.746;2022-08-01T05:56:19;6.70;;;5.00;;
13327;SDS011;6733;51.044;3.746;2022-08-01T05:58:47;9.90;;;5.10;;
13327;SDS011;6733;51.044;3.746;2022-08-01T06:01:14;8.27;;;4.23;;
13327;SDS011;6733;51.044;3.746;2022-08-01T06:03:41;5.50;;;4.20;;
13327;SDS011;6733;51.044;3.746;2022-08-01T06:06:07;7.33;;;3.00;;
13327;SDS011;6733;51.044;3.746;2022-08-01T06:08:33;4.80;;;3.20;;
13327;SDS011;6733;51.044;3.746;2022-08-01T06:10:59;6.57;;;3.80;;
13327;SDS011;6733;51.044;3.746;2022-08-01T06:13:26;6.87;;;3.80;;
13327;SDS011;6733;51.044;3.746;2022-08-01T06:15:52;5.80;;;3.30;;
13327;SDS011;6733;51.044;3.746;2022-08-01T06:18:19;7.53;;;3.77;;
13327;SDS011;6733;51.044;3.746;2022-08-01T06:20:45;5.00;;;3.80;;
13327;SDS011;6733;51.044;3.746;2022-08-01T06:23:11;5.83;;;4.03;;
13327;SDS011;6733;51.044;3.746;2022-08-01T06:25:39;6.17;;;3.87;;
13327;SDS011;6733;51.044;3.746;2022-08-01T06:28:05;7.10;;;3.50;;
13327;SDS011;6733;51.044;3.746;2022-08-01T06:30:31;4.87;;;3.40;;
13327;SDS011;6733;51.044;3.746;2022-08-01T06:32:57;5.80;;;3.80;;
13327;SDS011;6733;51.044;3.746;2022-08-01T06:35:27;9.80;;;3.80;;
13327;SDS011;6733;51.044;3.746;2022-08-01T06:37:55;4.40;;;3.27;;
13327;SDS011;6733;51.044;3.746;2022-08-01T06:40:22;4.33;;;3.40;;
13327;SDS011;6733;51.044;3.746;2022-08-01T06:42:48;4.63;;;3.00;;
13327;SDS011;6733;51.044;3.746;2022-08-01T06:45:15;6.77;;;3.13;;
13327;SDS011;6733;51.044;3.746;2022-08-01T06:47:42;3.77;;;3.23;;
13327;SDS011;6733;51.044;3.746;2022-08-01T06:50:09;5.00;;;2.50;;
13327;SDS011;6733;51.044;3.746;2022-08-01T06:52:36;3.93;;;2.40;;
13327;SDS011;6733;51.044;3.746;2022-08-01T06:55:03;2.80;;;2.10;;
13327;SDS011;6733;51.044;3.746;2022-08-01T06:57:29;7.30;;;2.53;;
13327;SDS011;6733;51.044;3.746;2022-08-01T06:59:55;2.60;;;2.40;;
13327;SDS011;6733;51.044;3.746;2022-08-01T07:02:22;4.37;;;2.37;;
13327;SDS011;6733;51.044;3.746;2022-08-01T07:04:48;4.30;;;2.20;;
13327;SDS011;6733;51.044;3.746;2022-08-01T07:07:14;2.77;;;2.23;;
13327;SDS011;6733;51.044;3.746;2022-08-01T07:09:41;3.27;;;1.93;;
13327;SDS011;6733;51.044;3.746;2022-08-01T07:12:08;2.50;;;2.30;;
13327;SDS011;6733;51.044;3.746;2022-08-01T07:14:34;3.43;;;2.43;;
13327;SDS011;6733;51.044;3.746;2022-08-01T07:17:00;3.40;;;2.20;;
13327;SDS011;6733;51.044;3.746;2022-08-01T07:19:26;4.03;;;2.20;;
13327;SDS011;6733;51.044;3.746;2022-08-01T07:21:53;2.93;;;1.90;;
13327;SDS011;6733;51.044;3.746;2022-08-01T07:24:19;2.73;;;1.97;;
13327;SDS011;6733;51.044;3.746;2022-08-01T07:26:46;2.13;;;1.90;;
13327;SDS011;6733;51.044;3.746;2022-08-01T07:29:13;3.90;;;2.10;;
13327;SDS011;6733;51.044;3.746;2022-08-01T07:31:40;3.73;;;2.10;;
13327;SDS011;6733;51.044;3.746;2022-08-01T07:34:06;3.87;;;2.33;;
13327;SDS011;6733;51.044;3.746;2022-08-01T07:36:33;4.57;;;2.07;;
13327;SDS011;6733;51.044;3.746;2022-08-01T07:38:59;4.20;;;2.30;;
13327;SDS011;6733;51.044;3.746;2022-08-01T07:41:25;9.97;;;2.90;;
13327;SDS011;6733;51.044;3.746;2022-08-01T07:43:51;5.00;;;2.30;;
13327;SDS011;6733;51.044;3.746;2022-08-01T07:46:17;2.60;;;2.20;;
13327;SDS011;6733;51.044;3.746;2022-08-01T07:48:44;3.20;;;2.13;;
13327;SDS011;6733;51.044;3.746;2022-08-01T07:51:10;3.17;;;2.00;;
13327;SDS011;6733;51.044;3.746;2022-08-01T07:53:37;2.77;;;2.00;;
13327;SDS011;6733;51.044;3.746;2022-08-01T07:56:04;2.20;;;2.00;;
13327;SDS011;6733;51.044;3.746;2022-08-01T07:58:32;3.30;;;2.13;;
13327;SDS011;6733;51.044;3.746;2022-08-01T08:00:58;3.93;;;1.97;;
13327;SDS011;6733;51.044;3.746;2022-08-01T08:03:24;3.63;;;2.17;;
13327;SDS011;6733;51.044;3.746;2022-08-01T08:05:52;2.07;;;1.87;;
13327;SDS011;6733;51.044;3.746;2022-08-01T08:08:18;2.60;;;1.97;;
13327;SDS011;6733;51.044;3.746;2022-08-01T08:10:44;3.77;;;1.87;;
13327;SDS011;6733;51.044;3.746;2022-08-01T08:13:10;3.60;;;1.83;;
13327;SDS011;6733;51.044;3.746;2022-08-01T08:15:37;3.00;;;2.63;;
13327;SDS011;6733;51.044;3.746;2022-08-01T08:18:03;4.20;;;3.50;;
13327;SDS011;6733;51.044;3.746;2022-08-01T08:20:30;5.60;;;3.60;;
13327;SDS011;6733;51.044;3.746;2022-08-01T08:22:56;3.43;;;3.10;;
13327;SDS011;6733;51.044;3.746;2022-08-01T08:25:25;4.60;;;4.20;;
13327;SDS011;6733;51.044;3.746;2022-08-01T08:27:54;4.20;;;3.80;;
13327;SDS011;6733;51.044;3.746;2022-08-01T08:30:20;3.30;;;2.90;;
13327;SDS011;6733;51.044;3.746;2022-08-01T08:32:46;4.47;;;2.80;;
13327;SDS011;6733;51.044;3.746;2022-08-01T08:35:13;2.77;;;2.50;;
13327;SDS011;6733;51.044;3.746;2022-08-01T08:37:39;3.47;;;2.33;;
13327;SDS011;6733;51.044;3.746;2022-08-01T08:40:05;5.37;;;4.37;;
13327;SDS011;6733;51.044;3.746;2022-08-01T08:42:32;6.40;;;4.60;;
13327;SDS011;6733;51.044;3.746;2022-08-01T08:45:00;5.13;;;4.37;;
13327;SDS011;6733;51.044;3.746;2022-08-01T08:47:26;9.07;;;8.20;;
13327;SDS011;6733;51.044;3.746;2022-08-01T08:49:54;7.57;;;5.73;;
13327;SDS011;6733;51.044;3.746;2022-08-01T08:52:21;6.57;;;4.40;;
13327;SDS011;6733;51.044;3.746;2022-08-01T08:54:49;5.90;;;5.30;;
13327;SDS011;6733;51.044;3.746;2022-08-01T08:57:18;7.47;;;6.77;;
13327;SDS011;6733;51.044;3.746;2022-08-01T08:59:45;7.43;;;6.77;;
13327;SDS011;6733;51.044;3.746;2022-08-01T09:02:12;5.33;;;4.90;;
13327;SDS011;6733;51.044;3.746;2022-08-01T09:04:38;4.60;;;4.30;;
13327;SDS011;6733;51.044;3.746;2022-08-01T09:07:05;3.53;;;3.23;;
13327;SDS011;6733;51.044;3.746;2022-08-01T09:09:33;3.53;;;3.17;;
13327;SDS011;6733;51.044;3.746;2022-08-01T09:12:00;2.30;;;2.10;;
13327;SDS011;6733;51.044;3.746;2022-08-01T09:14:26;2.53;;;2.07;;
13327;SDS011;6733;51.044;3.746;2022-08-01T09:16:59;2.53;;;2.03;;
13327;SDS011;6733;51.044;3.746;2022-08-01T09:19:34;3.80;;;2.27;;
13327;SDS011;6733;51.044;3.746;2022-08-01T09:22:07;5.03;;;2.33;;
13327;SDS011;6733;51.044;3.746;2022-08-01T09:24:34;3.57;;;2.10;;
13327;SDS011;6733;51.044;3.746;2022-08-01T09:27:01;3.60;;;2.10;;
13327;SDS011;6733;51.044;3.746;2022-08-01T09:29:42;2.93;;;1.70;;
13327;SDS011;6733;51.044;3.746;2022-08-01T09:32:10;3.27;;;1.60;;
13327;SDS011;6733;51.044;3.746;2022-08-01T09:34:36;3.20;;;1.70;;
13327;SDS011;6733;51.044;3.746;2022-08-01T09:37:02;6.53;;;2.00;;
13327;SDS011;6733;51.044;3.746;2022-08-01T09:39:33;2.73;;;2.07;;
13327;SDS011;6733;51.044;3.746;2022-08-01T09:42:22;4.43;;;2.40;;
13327;SDS011;6733;51.044;3.746;2022-08-01T09:44:50;3.67;;;1.87;;
13327;SDS011;6733;51.044;3.746;2022-08-01T09:47:17;2.58;;;2.03;;
13327;SDS011;6733;51.044;3.746;2022-08-01T09:49:52;5.40;;;2.00;;
13327;SDS011;6733;51.044;3.746;2022-08-01T09:52:21;5.07;;;2.17;;
13327;SDS011;6733;51.044;3.746;2022-08-01T09:54:52;3.00;;;1.80;;
13327;SDS011;6733;51.044;3.746;2022-08-01T09:57:24;3.77;;;2.40;;
13327;SDS011;6733;51.044;3.746;2022-08-01T09:59:51;4.57;;;1.93;;
13327;SDS011;6733;51.044;3.746;2022-08-01T10:02:29;2.43;;;2.10;;
13327;SDS011;6733;51.044;3.746;2022-08-01T10:04:57;3.90;;;2.20;;
13327;SDS011;6733;51.044;3.746;2022-08-01T10:07:23;3.47;;;2.20;;
13327;SDS011;6733;51.044;3.746;2022-08-01T10:09:49;5.17;;;2.60;;
13327;SDS011;6733;51.044;3.746;2022-08-01T10:12:17;5.83;;;2.40;;
13327;SDS011;6733;51.044;3.746;2022-08-01T10:14:45;6.87;;;2.70;;
13327;SDS011;6733;51.044;3.746;2022-08-01T10:17:16;2.63;;;2.43;;
13327;SDS011;6733;51.044;3.746;2022-08-01T10:19:44;3.15;;;1.95;;
13327;SDS011;6733;51.044;3.746;2022-08-01T10:22:12;2.40;;;1.90;;
13327;SDS011;6733;51.044;3.746;2022-08-01T10:24:42;3.22;;;2.00;;
13327;SDS011;6733;51.044;3.746;2022-08-01T10:27:11;3.45;;;2.00;;
13327;SDS011;6733;51.044;3.746;2022-08-01T10:29:41;7.38;;;2.70;;
13327;SDS011;6733;51.044;3.746;2022-08-01T10:32:14;4.00;;;2.50;;
13327;SDS011;6733;51.044;3.746;2022-08-01T10:34:41;3.60;;;2.10;;
13327;SDS011;6733;51.044;3.746;2022-08-01T10:37:08;2.65;;;2.10;;
13327;SDS011;6733;51.044;3.746;2022-08-01T10:39:35;5.57;;;2.13;;
13327;SDS011;6733;51.044;3.746;2022-08-01T10:42:02;3.30;;;2.17;;
13327;SDS011;6733;51.044;3.746;2022-08-01T10:44:29;3.90;;;2.08;;
13327;SDS011;6733;51.044;3.746;2022-08-01T10:47:01;2.72;;;2.45;;
13327;SDS011;6733;51.044;3.746;2022-08-01T10:49:48;2.83;;;2.25;;
13327;SDS011;6733;51.044;3.746;2022-08-01T10:52:20;4.97;;;2.40;;
13327;SDS011;6733;51.044;3.746;2022-08-01T10:54:46;3.17;;;1.80;;
13327;SDS011;6733;51.044;3.746;2022-08-01T10:57:13;2.38;;;1.98;;
13327;SDS011;6733;51.044;3.746;2022-08-01T10:59:49;4.55;;;2.50;;
13327;SDS011;6733;51.044;3.746;2022-08-01T11:02:29;2.95;;;2.15;;
13327;SDS011;6733;51.044;3.746;2022-08-01T11:05:06;3.03;;;2.20;;
13327;SDS011;6733;51.044;3.746;2022-08-01T11:12:47;7.53;;;2.80;;
13327;SDS011;6733;51.044;3.746;2022-08-01T11:17:45;3.95;;;2.60;;
13327;SDS011;6733;51.044;3.746;2022-08-01T11:20:20;5.13;;;2.50;;
13327;SDS011;6733;51.044;3.746;2022-08-01T11:30:46;4.38;;;2.42;;
13327;SDS011;6733;51.044;3.746;2022-08-01T11:33:14;3.55;;;2.17;;
13327;SDS011;6733;51.044;3.746;2022-08-01T11:38:43;6.05;;;2.15;;
13327;SDS011;6733;51.044;3.746;2022-08-01T11:54:32;3.17;;;2.20;;
13327;SDS011;6733;51.044;3.746;2022-08-01T11:57:02;4.03;;;2.10;;
13327;SDS011;6733;51.044;3.746;2022-08-01T11:59:35;3.10;;;2.22;;
13327;SDS011;6733;51.044;3.746;2022-08-01T12:05:02;6.78;;;2.95;;
13327;SDS011;6733;51.044;3.746;2022-08-01T12:07:37;5.72;;;2.72;;
13327;SDS011;6733;51.044;3.746;2022-08-01T12:10:11;5.43;;;2.60;;
13327;SDS011;6733;51.044;3.746;2022-08-01T12:15:11;4.80;;;2.38;;
13327;SDS011;6733;51.044;3.746;2022-08-01T12:17:39;3.88;;;2.40;;
13327;SDS011;6733;51.044;3.746;2022-08-01T12:20:10;3.28;;;2.00;;
13327;SDS011;6733;51.044;3.746;2022-08-01T12:22:40;5.43;;;2.60;;
13327;SDS011;6733;51.044;3.746;2022-08-01T12:25:11;4.90;;;2.38;;
13327;SDS011;6733;51.044;3.746;2022-08-01T12:27:40;5.40;;;2.55;;
13327;SDS011;6733;51.044;3.746;2022-08-01T12:30:09;4.30;;;2.13;;
13327;SDS011;6733;51.044;3.746;2022-08-01T12:32:37;4.32;;;2.00;;
13327;SDS011;6733;51.044;3.746;2022-08-01T12:35:06;5.10;;;2.70;;
13327;SDS011;6733;51.044;3.746;2022-08-01T12:38:00;2.55;;;1.80;;
13327;SDS011;6733;51.044;3.746;2022-08-01T12:40:27;3.78;;;2.10;;
13327;SDS011;6733;51.044;3.746;2022-08-01T12:42:57;2.67;;;1.95;;
13327;SDS011;6733;51.044;3.746;2022-08-01T12:45:27;3.53;;;2.20;;
13327;SDS011;6733;51.044;3.746;2022-08-01T12:47:58;5.55;;;2.15;;
13327;SDS011;6733;51.044;3.746;2022-08-01T12:50:26;3.53;;;2.25;;
13327;SDS011;6733;51.044;3.746;2022-08-01T12:52:55;4.05;;;2.08;;
13327;SDS011;6733;51.044;3.746;2022-08-01T12:55:23;5.90;;;2.45;;
13327;SDS011;6733;51.044;3.746;2022-08-01T12:58:07;4.97;;;2.05;;
13327;SDS011;6733;51.044;3.746;2022-08-01T13:00:35;5.15;;;2.30;;
13327;SDS011;6733;51.044;3.746;2022-08-01T13:03:11;2.50;;;1.92;;
13327;SDS011;6733;51.044;3.746;2022-08-01T13:05:43;5.10;;;2.20;;
13327;SDS011;6733;51.044;3.746;2022-08-01T13:08:23;4.95;;;2.33;;
13327;SDS011;6733;51.044;3.746;2022-08-01T13:11:00;4.47;;;2.10;;
13327;SDS011;6733;51.044;3.746;2022-08-01T13:13:40;6.85;;;1.83;;
13327;SDS011;6733;51.044;3.746;2022-08-01T13:16:08;2.38;;;2.10;;
13327;SDS011;6733;51.044;3.746;2022-08-01T13:18:35;3.40;;;2.45;;
13327;SDS011;6733;51.044;3.746;2022-08-01T13:21:09;3.75;;;2.40;;
13327;SDS011;6733;51.044;3.746;2022-08-01T13:24:26;3.97;;;2.38;;
13327;SDS011;6733;51.044;3.746;2022-08-01T13:29:04;3.40;;;2.30;;
13327;SDS011;6733;51.044;3.746;2022-08-01T13:31:32;4.40;;;2.40;;
13327;SDS011;6733;51.044;3.746;2022-08-01T13:33:59;2.85;;;2.50;;
13327;SDS011;6733;51.044;3.746;2022-08-01T13:36:25;4.00;;;2.28;;
13327;SDS011;6733;51.044;3.746;2022-08-01T13:38:57;5.75;;;2.28;;
13327;SDS011;6733;51.044;3.746;2022-08-01T13:41:43;2.35;;;1.83;;
13327;SDS011;6733;51.044;3.746;2022-08-01T13:44:09;3.92;;;2.22;;
13327;SDS011;6733;51.044;3.746;2022-08-01T13:46:36;5.75;;;1.90;;
13327;SDS011;6733;51.044;3.746;2022-08-01T13:49:04;2.78;;;1.70;;
13327;SDS011;6733;51.044;3.746;2022-08-01T13:51:31;2.08;;;1.60;;
13327;SDS011;6733;51.044;3.746;2022-08-01T13:53:58;2.60;;;1.80;;
13327;SDS011;6733;51.044;3.746;2022-08-01T13:56:24;4.32;;;1.40;;
13327;SDS011;6733;51.044;3.746;2022-08-01T13:58:53;2.40;;;1.50;;
13327;SDS011;6733;51.044;3.746;2022-08-01T14:01:20;1.60;;;1.50;;
13327;SDS011;6733;51.044;3.746;2022-08-01T14:03:46;2.97;;;1.60;;
13327;SDS011;6733;51.044;3.746;2022-08-01T14:06:13;3.58;;;1.63;;
13327;SDS011;6733;51.044;3.746;2022-08-01T14:08:41;2.42;;;1.77;;
13327;SDS011;6733;51.044;3.746;2022-08-01T14:11:08;3.33;;;1.67;;
13327;SDS011;6733;51.044;3.746;2022-08-01T14:13:35;2.17;;;1.75;;
13327;SDS011;6733;51.044;3.746;2022-08-01T14:16:04;3.85;;;1.80;;
13327;SDS011;6733;51.044;3.746;2022-08-01T14:18:31;3.15;;;1.60;;
13327;SDS011;6733;51.044;3.746;2022-08-01T14:20:57;3.70;;;1.67;;
13327;SDS011;6733;51.044;3.746;2022-08-01T14:23:23;3.67;;;1.80;;
13327;SDS011;6733;51.044;3.746;2022-08-01T14:25:49;3.28;;;1.50;;
13327;SDS011;6733;51.044;3.746;2022-08-01T14:28:15;3.53;;;1.70;;
13327;SDS011;6733;51.044;3.746;2022-08-01T14:30:42;1.98;;;1.40;;
13327;SDS011;6733;51.044;3.746;2022-08-01T14:33:09;3.50;;;1.60;;
13327;SDS011;6733;51.044;3.746;2022-08-01T14:35:35;4.63;;;2.03;;
13327;SDS011;6733;51.044;3.746;2022-08-01T14:38:02;4.10;;;1.77;;
13327;SDS011;6733;51.044;3.746;2022-08-01T14:40:29;3.58;;;1.83;;
13327;SDS011;6733;51.044;3.746;2022-08-01T14:42:55;3.25;;;1.77;;
13327;SDS011;6733;51.044;3.746;2022-08-01T14:45:21;4.70;;;2.08;;
13327;SDS011;6733;51.044;3.746;2022-08-01T14:47:47;3.22;;;1.67;;
13327;SDS011;6733;51.044;3.746;2022-08-01T14:50:14;5.05;;;1.60;;
13327;SDS011;6733;51.044;3.746;2022-08-01T14:52:41;3.53;;;2.00;;
13327;SDS011;6733;51.044;3.746;2022-08-01T14:55:09;3.13;;;1.40;;
13327;SDS011;6733;51.044;3.746;2022-08-01T14:57:37;4.30;;;1.83;;
13327;SDS011;6733;51.044;3.746;2022-08-01T15:00:05;4.45;;;1.83;;
13327;SDS011;6733;51.044;3.746;2022-08-01T15:02:35;2.90;;;1.63;;
13327;SDS011;6733;51.044;3.746;2022-08-01T15:05:01;4.68;;;1.90;;
13327;SDS011;6733;51.044;3.746;2022-08-01T15:07:27;7.63;;;2.15;;
13327;SDS011;6733;51.044;3.746;2022-08-01T15:09:53;4.70;;;1.73;;
13327;SDS011;6733;51.044;3.746;2022-08-01T15:12:20;2.40;;;1.50;;
13327;SDS011;6733;51.044;3.746;2022-08-01T15:14:46;3.28;;;1.77;;
13327;SDS011;6733;51.044;3.746;2022-08-01T15:17:23;4.32;;;2.00;;
13327;SDS011;6733;51.044;3.746;2022-08-01T15:19:51;8.65;;;2.00;;
13327;SDS011;6733;51.044;3.746;2022-08-01T15:22:22;2.65;;;1.50;;
13327;SDS011;6733;51.044;3.746;2022-08-01T15:24:51;3.42;;;1.70;;
13327;SDS011;6733;51.044;3.746;2022-08-01T15:27:18;3.45;;;1.60;;
13327;SDS011;6733;51.044;3.746;2022-08-01T15:29:46;2.75;;;1.55;;
13327;SDS011;6733;51.044;3.746;2022-08-01T15:32:13;1.92;;;1.40;;
13327;SDS011;6733;51.044;3.746;2022-08-01T15:34:40;6.38;;;1.77;;
13327;SDS011;6733;51.044;3.746;2022-08-01T15:37:07;2.38;;;1.70;;
13327;SDS011;6733;51.044;3.746;2022-08-01T15:39:34;2.75;;;1.67;;
13327;SDS011;6733;51.044;3.746;2022-08-01T15:42:02;1.60;;;1.38;;
13327;SDS011;6733;51.044;3.746;2022-08-01T15:44:36;1.70;;;1.58;;
13327;SDS011;6733;51.044;3.746;2022-08-01T15:47:03;3.30;;;1.80;;
13327;SDS011;6733;51.044;3.746;2022-08-01T15:49:30;3.50;;;1.80;;
13327;SDS011;6733;51.044;3.746;2022-08-01T15:51:58;2.17;;;1.58;;
13327;SDS011;6733;51.044;3.746;2022-08-01T15:54:24;3.58;;;2.10;;
13327;SDS011;6733;51.044;3.746;2022-08-01T15:56:50;4.25;;;1.90;;